sensor_id;sensor_type;location;lat;lon;timestamp;P1;durP1;ratioP1;P2;durP2;ratioP2
72379;SDS011;60354;47.798;12.472;2023-12-04T00:00:44;6.22;;;2.88;;
72379;SDS011;60354;47.798;12.472;2023-12-04T00:03:10;4.63;;;2.47;;
72379;SDS011;60354;47.798;12.472;2023-12-04T00:05:37;5.30;;;2.70;;
72379;SDS011;60354;47.798;12.472;2023-12-04T00:08:02;4.82;;;2.38;;
72379;SDS011;60354;47.798;12.472;2023-12-04T00:10:28;5.85;;;2.80;;
72379;SDS011;60354;47.798;12.472;2023-12-04T00:12:53;4.38;;;2.45;;
72379;SDS011;60354;47.798;12.472;2023-12-04T00:15:19;5.80;;;2.78;;
72379;SDS011;60354;47.798;12.472;2023-12-04T00:17:45;3.65;;;2.05;;
72379;SDS011;60354;47.798;12.472;2023-12-04T00:20:11;5.03;;;2.72;;
72379;SDS011;60354;47.798;12.472;2023-12-04T00:22:37;3.78;;;2.25;;
72379;SDS011;60354;47.798;12.472;2023-12-04T00:25:03;5.78;;;2.53;;
72379;SDS011;60354;47.798;12.472;2023-12-04T00:27:29;5.57;;;2.88;;
72379;SDS011;60354;47.798;12.472;2023-12-04T00:29:55;4.38;;;2.60;;
72379;SDS011;60354;47.798;12.472;2023-12-04T00:32:21;5.38;;;2.75;;
72379;SDS011;60354;47.798;12.472;2023-12-04T00:34:47;6.15;;;2.70;;
72379;SDS011;60354;47.798;12.472;2023-12-04T00:37:12;4.57;;;2.33;;
72379;SDS011;60354;47.798;12.472;2023-12-04T00:39:38;5.43;;;2.40;;
72379;SDS011;60354;47.798;12.472;2023-12-04T00:42:03;5.60;;;2.47;;
72379;SDS011;60354;47.798;12.472;2023-12-04T00:44:29;4.85;;;2.50;;
72379;SDS011;60354;47.798;12.472;2023-12-04T00:46:55;4.00;;;1.92;;
72379;SDS011;60354;47.798;12.472;2023-12-04T00:49:20;3.78;;;2.20;;
72379;SDS011;60354;47.798;12.472;2023-12-04T00:51:46;4.13;;;2.28;;
72379;SDS011;60354;47.798;12.472;2023-12-04T00:54:11;4.30;;;2.28;;
72379;SDS011;60354;47.798;12.472;2023-12-04T00:56:40;4.05;;;2.13;;
72379;SDS011;60354;47.798;12.472;2023-12-04T00:59:06;6.22;;;2.33;;
72379;SDS011;60354;47.798;12.472;2023-12-04T01:01:33;5.45;;;2.40;;
72379;SDS011;60354;47.798;12.472;2023-12-04T01:03:58;4.47;;;2.30;;
72379;SDS011;60354;47.798;12.472;2023-12-04T01:06:24;4.97;;;2.47;;
72379;SDS011;60354;47.798;12.472;2023-12-04T01:08:50;4.70;;;2.38;;
72379;SDS011;60354;47.798;12.472;2023-12-04T01:11:16;4.03;;;2.10;;
72379;SDS011;60354;47.798;12.472;2023-12-04T01:13:42;5.05;;;2.10;;
72379;SDS011;60354;47.798;12.472;2023-12-04T01:16:08;4.25;;;2.38;;
72379;SDS011;60354;47.798;12.472;2023-12-04T01:18:34;5.38;;;2.05;;
72379;SDS011;60354;47.798;12.472;2023-12-04T01:21:00;3.50;;;2.15;;
72379;SDS011;60354;47.798;12.472;2023-12-04T01:23:26;5.55;;;2.22;;
72379;SDS011;60354;47.798;12.472;2023-12-04T01:25:51;3.80;;;2.20;;
72379;SDS011;60354;47.798;12.472;2023-12-04T01:28:17;3.83;;;2.20;;
72379;SDS011;60354;47.798;12.472;2023-12-04T01:30:42;3.55;;;1.95;;
72379;SDS011;60354;47.798;12.472;2023-12-04T01:33:08;4.15;;;2.35;;
72379;SDS011;60354;47.798;12.472;2023-12-04T01:35:33;4.57;;;2.20;;
72379;SDS011;60354;47.798;12.472;2023-12-04T01:37:59;4.10;;;2.25;;
72379;SDS011;60354;47.798;12.472;2023-12-04T01:40:25;3.78;;;2.20;;
72379;SDS011;60354;47.798;12.472;2023-12-04T01:42:51;4.60;;;2.28;;
72379;SDS011;60354;47.798;12.472;2023-12-04T01:45:17;4.25;;;2.47;;
72379;SDS011;60354;47.798;12.472;2023-12-04T01:47:44;4.72;;;2.47;;
72379;SDS011;60354;47.798;12.472;2023-12-04T01:50:10;4.47;;;2.58;;
72379;SDS011;60354;47.798;12.472;2023-12-04T01:52:37;4.18;;;2.15;;
72379;SDS011;60354;47.798;12.472;2023-12-04T01:55:03;4.85;;;2.30;;
72379;SDS011;60354;47.798;12.472;2023-12-04T01:57:30;4.38;;;2.20;;
72379;SDS011;60354;47.798;12.472;2023-12-04T01:59:55;4.35;;;2.28;;
72379;SDS011;60354;47.798;12.472;2023-12-04T02:02:21;4.57;;;2.30;;
72379;SDS011;60354;47.798;12.472;2023-12-04T02:04:46;3.63;;;2.10;;
72379;SDS011;60354;47.798;12.472;2023-12-04T02:07:12;3.13;;;1.90;;
72379;SDS011;60354;47.798;12.472;2023-12-04T02:09:37;4.55;;;2.03;;
72379;SDS011;60354;47.798;12.472;2023-12-04T02:12:03;3.60;;;2.28;;
72379;SDS011;60354;47.798;12.472;2023-12-04T02:14:29;3.97;;;2.10;;
72379;SDS011;60354;47.798;12.472;2023-12-04T02:16:54;3.10;;;1.92;;
72379;SDS011;60354;47.798;12.472;2023-12-04T02:19:21;3.72;;;2.20;;
72379;SDS011;60354;47.798;12.472;2023-12-04T02:21:47;4.13;;;2.53;;
72379;SDS011;60354;47.798;12.472;2023-12-04T02:24:12;5.35;;;2.20;;
72379;SDS011;60354;47.798;12.472;2023-12-04T02:26:47;3.67;;;2.08;;
72379;SDS011;60354;47.798;12.472;2023-12-04T02:29:29;3.72;;;2.10;;
72379;SDS011;60354;47.798;12.472;2023-12-04T02:31:56;5.63;;;2.28;;
72379;SDS011;60354;47.798;12.472;2023-12-04T02:34:23;3.55;;;2.00;;
72379;SDS011;60354;47.798;12.472;2023-12-04T02:36:49;3.70;;;2.30;;
72379;SDS011;60354;47.798;12.472;2023-12-04T02:39:16;3.20;;;1.80;;
72379;SDS011;60354;47.798;12.472;2023-12-04T02:41:42;2.50;;;1.65;;
72379;SDS011;60354;47.798;12.472;2023-12-04T02:44:07;5.78;;;2.00;;
72379;SDS011;60354;47.798;12.472;2023-12-04T02:46:33;4.57;;;2.20;;
72379;SDS011;60354;47.798;12.472;2023-12-04T02:48:58;3.95;;;2.13;;
72379;SDS011;60354;47.798;12.472;2023-12-04T02:51:24;3.95;;;1.95;;
72379;SDS011;60354;47.798;12.472;2023-12-04T02:53:51;3.88;;;1.92;;
72379;SDS011;60354;47.798;12.472;2023-12-04T02:56:17;3.75;;;1.95;;
72379;SDS011;60354;47.798;12.472;2023-12-04T02:58:42;2.75;;;1.58;;
72379;SDS011;60354;47.798;12.472;2023-12-04T03:01:08;2.75;;;1.52;;
72379;SDS011;60354;47.798;12.472;2023-12-04T03:03:33;2.97;;;1.80;;
72379;SDS011;60354;47.798;12.472;2023-12-04T03:05:58;2.95;;;1.80;;
72379;SDS011;60354;47.798;12.472;2023-12-04T03:08:24;4.85;;;1.77;;
72379;SDS011;60354;47.798;12.472;2023-12-04T03:10:49;2.78;;;1.70;;
72379;SDS011;60354;47.798;12.472;2023-12-04T03:13:15;3.17;;;1.80;;
72379;SDS011;60354;47.798;12.472;2023-12-04T03:15:40;2.03;;;1.20;;
72379;SDS011;60354;47.798;12.472;2023-12-04T03:18:06;3.55;;;1.60;;
72379;SDS011;60354;47.798;12.472;2023-12-04T03:20:34;2.95;;;1.80;;
72379;SDS011;60354;47.798;12.472;2023-12-04T03:23:00;3.17;;;1.50;;
72379;SDS011;60354;47.798;12.472;2023-12-04T03:25:25;3.33;;;1.90;;
72379;SDS011;60354;47.798;12.472;2023-12-04T03:27:50;2.75;;;1.70;;
72379;SDS011;60354;47.798;12.472;2023-12-04T03:30:16;3.50;;;1.85;;
72379;SDS011;60354;47.798;12.472;2023-12-04T03:32:41;3.00;;;1.60;;
72379;SDS011;60354;47.798;12.472;2023-12-04T03:35:07;2.70;;;1.80;;
72379;SDS011;60354;47.798;12.472;2023-12-04T03:37:32;2.83;;;1.70;;
72379;SDS011;60354;47.798;12.472;2023-12-04T03:39:58;3.47;;;2.08;;
72379;SDS011;60354;47.798;12.472;2023-12-04T03:42:24;3.15;;;1.90;;
72379;SDS011;60354;47.798;12.472;2023-12-04T03:44:49;3.67;;;1.80;;
72379;SDS011;60354;47.798;12.472;2023-12-04T03:47:14;2.72;;;1.77;;
72379;SDS011;60354;47.798;12.472;2023-12-04T03:49:40;3.13;;;1.70;;
72379;SDS011;60354;47.798;12.472;2023-12-04T03:52:05;2.63;;;1.65;;
72379;SDS011;60354;47.798;12.472;2023-12-04T03:54:31;3.22;;;1.60;;
72379;SDS011;60354;47.798;12.472;2023-12-04T03:56:56;2.72;;;1.63;;
72379;SDS011;60354;47.798;12.472;2023-12-04T03:59:22;2.63;;;1.63;;
72379;SDS011;60354;47.798;12.472;2023-12-04T04:01:47;3.38;;;1.80;;
72379;SDS011;60354;47.798;12.472;2023-12-04T04:04:13;3.75;;;1.80;;
72379;SDS011;60354;47.798;12.472;2023-12-04T04:06:38;5.18;;;1.65;;
72379;SDS011;60354;47.798;12.472;2023-12-04T04:09:04;3.30;;;1.60;;
72379;SDS011;60354;47.798;12.472;2023-12-04T04:11:30;2.45;;;1.52;;
72379;SDS011;60354;47.798;12.472;2023-12-04T04:13:55;3.38;;;1.50;;
72379;SDS011;60354;47.798;12.472;2023-12-04T04:16:21;3.28;;;1.80;;
72379;SDS011;60354;47.798;12.472;2023-12-04T04:18:46;2.65;;;1.75;;
72379;SDS011;60354;47.798;12.472;2023-12-04T04:21:12;3.08;;;1.83;;
72379;SDS011;60354;47.798;12.472;2023-12-04T04:23:37;3.25;;;1.80;;
72379;SDS011;60354;47.798;12.472;2023-12-04T04:26:03;2.88;;;1.48;;
72379;SDS011;60354;47.798;12.472;2023-12-04T04:28:28;3.22;;;1.50;;
72379;SDS011;60354;47.798;12.472;2023-12-04T04:30:54;2.58;;;1.45;;
72379;SDS011;60354;47.798;12.472;2023-12-04T04:33:19;4.15;;;1.45;;
72379;SDS011;60354;47.798;12.472;2023-12-04T04:35:44;3.13;;;1.80;;
72379;SDS011;60354;47.798;12.472;2023-12-04T04:38:10;3.13;;;1.70;;
72379;SDS011;60354;47.798;12.472;2023-12-04T04:40:35;3.15;;;1.55;;
72379;SDS011;60354;47.798;12.472;2023-12-04T04:43:01;4.05;;;1.60;;
72379;SDS011;60354;47.798;12.472;2023-12-04T04:45:26;3.40;;;1.50;;
72379;SDS011;60354;47.798;12.472;2023-12-04T04:47:52;4.03;;;1.67;;
72379;SDS011;60354;47.798;12.472;2023-12-04T04:50:17;2.97;;;1.80;;
72379;SDS011;60354;47.798;12.472;2023-12-04T04:52:42;4.70;;;1.73;;
72379;SDS011;60354;47.798;12.472;2023-12-04T04:55:08;2.63;;;1.60;;
72379;SDS011;60354;47.798;12.472;2023-12-04T04:57:33;3.15;;;1.95;;
72379;SDS011;60354;47.798;12.472;2023-12-04T04:59:59;3.35;;;1.75;;
72379;SDS011;60354;47.798;12.472;2023-12-04T05:02:24;3.85;;;1.60;;
72379;SDS011;60354;47.798;12.472;2023-12-04T05:04:50;2.45;;;1.50;;
72379;SDS011;60354;47.798;12.472;2023-12-04T05:07:15;5.80;;;1.60;;
72379;SDS011;60354;47.798;12.472;2023-12-04T05:09:41;2.22;;;1.30;;
72379;SDS011;60354;47.798;12.472;2023-12-04T05:12:06;4.20;;;1.60;;
72379;SDS011;60354;47.798;12.472;2023-12-04T05:14:32;3.58;;;1.55;;
72379;SDS011;60354;47.798;12.472;2023-12-04T05:16:58;5.95;;;1.95;;
72379;SDS011;60354;47.798;12.472;2023-12-04T05:19:23;2.45;;;1.45;;
72379;SDS011;60354;47.798;12.472;2023-12-04T05:21:48;2.75;;;1.58;;
72379;SDS011;60354;47.798;12.472;2023-12-04T05:24:17;3.50;;;1.60;;
72379;SDS011;60354;47.798;12.472;2023-12-04T05:26:43;3.28;;;1.85;;
72379;SDS011;60354;47.798;12.472;2023-12-04T05:29:08;4.18;;;2.00;;
72379;SDS011;60354;47.798;12.472;2023-12-04T05:31:33;3.50;;;1.80;;
72379;SDS011;60354;47.798;12.472;2023-12-04T05:33:59;1.95;;;1.27;;
72379;SDS011;60354;47.798;12.472;2023-12-04T05:36:24;3.17;;;2.08;;
72379;SDS011;60354;47.798;12.472;2023-12-04T05:38:50;3.20;;;1.67;;
72379;SDS011;60354;47.798;12.472;2023-12-04T05:41:15;2.63;;;1.60;;
72379;SDS011;60354;47.798;12.472;2023-12-04T05:43:41;3.45;;;1.70;;
72379;SDS011;60354;47.798;12.472;2023-12-04T05:46:06;2.40;;;1.50;;
72379;SDS011;60354;47.798;12.472;2023-12-04T05:48:31;2.70;;;1.75;;
72379;SDS011;60354;47.798;12.472;2023-12-04T05:50:57;4.50;;;2.00;;
72379;SDS011;60354;47.798;12.472;2023-12-04T05:53:23;4.63;;;1.98;;
72379;SDS011;60354;47.798;12.472;2023-12-04T05:55:48;3.92;;;2.00;;
72379;SDS011;60354;47.798;12.472;2023-12-04T05:58:13;4.10;;;1.92;;
72379;SDS011;60354;47.798;12.472;2023-12-04T06:00:39;5.38;;;2.92;;
72379;SDS011;60354;47.798;12.472;2023-12-04T06:03:05;5.13;;;2.53;;
72379;SDS011;60354;47.798;12.472;2023-12-04T06:05:31;3.10;;;1.50;;
72379;SDS011;60354;47.798;12.472;2023-12-04T06:07:56;3.88;;;1.83;;
72379;SDS011;60354;47.798;12.472;2023-12-04T06:10:23;1.88;;;1.33;;
72379;SDS011;60354;47.798;12.472;2023-12-04T06:12:48;3.45;;;1.80;;
72379;SDS011;60354;47.798;12.472;2023-12-04T06:15:14;2.85;;;1.45;;
72379;SDS011;60354;47.798;12.472;2023-12-04T06:17:39;2.28;;;1.50;;
72379;SDS011;60354;47.798;12.472;2023-12-04T06:20:05;2.70;;;1.45;;
72379;SDS011;60354;47.798;12.472;2023-12-04T06:22:31;4.35;;;1.55;;
72379;SDS011;60354;47.798;12.472;2023-12-04T06:24:57;2.92;;;1.63;;
72379;SDS011;60354;47.798;12.472;2023-12-04T06:27:23;2.60;;;1.50;;
72379;SDS011;60354;47.798;12.472;2023-12-04T06:29:48;3.10;;;1.30;;
72379;SDS011;60354;47.798;12.472;2023-12-04T06:32:15;2.55;;;1.33;;
72379;SDS011;60354;47.798;12.472;2023-12-04T06:34:41;2.40;;;1.40;;
72379;SDS011;60354;47.798;12.472;2023-12-04T06:37:11;3.97;;;1.80;;
72379;SDS011;60354;47.798;12.472;2023-12-04T06:39:38;3.25;;;1.70;;
72379;SDS011;60354;47.798;12.472;2023-12-04T06:42:05;2.85;;;1.60;;
72379;SDS011;60354;47.798;12.472;2023-12-04T06:44:32;3.15;;;1.85;;
72379;SDS011;60354;47.798;12.472;2023-12-04T06:46:58;4.00;;;2.10;;
72379;SDS011;60354;47.798;12.472;2023-12-04T06:49:25;3.30;;;1.45;;
72379;SDS011;60354;47.798;12.472;2023-12-04T06:51:55;2.63;;;1.52;;
72379;SDS011;60354;47.798;12.472;2023-12-04T06:54:21;2.58;;;1.50;;
72379;SDS011;60354;47.798;12.472;2023-12-04T06:56:46;4.55;;;1.60;;
72379;SDS011;60354;47.798;12.472;2023-12-04T06:59:12;2.72;;;1.50;;
72379;SDS011;60354;47.798;12.472;2023-12-04T07:01:37;2.50;;;1.30;;
72379;SDS011;60354;47.798;12.472;2023-12-04T07:04:03;3.80;;;1.70;;
72379;SDS011;60354;47.798;12.472;2023-12-04T07:06:38;2.03;;;1.38;;
72379;SDS011;60354;47.798;12.472;2023-12-04T07:09:04;2.95;;;1.52;;
72379;SDS011;60354;47.798;12.472;2023-12-04T07:11:32;2.67;;;1.38;;
72379;SDS011;60354;47.798;12.472;2023-12-04T07:13:58;3.17;;;1.60;;
72379;SDS011;60354;47.798;12.472;2023-12-04T07:16:24;3.28;;;1.88;;
72379;SDS011;60354;47.798;12.472;2023-12-04T07:18:49;3.00;;;1.40;;
72379;SDS011;60354;47.798;12.472;2023-12-04T07:21:15;2.08;;;1.33;;
72379;SDS011;60354;47.798;12.472;2023-12-04T07:23:40;2.58;;;1.30;;
72379;SDS011;60354;47.798;12.472;2023-12-04T07:26:06;2.78;;;1.40;;
72379;SDS011;60354;47.798;12.472;2023-12-04T07:28:32;1.95;;;1.10;;
72379;SDS011;60354;47.798;12.472;2023-12-04T07:30:57;2.72;;;1.35;;
72379;SDS011;60354;47.798;12.472;2023-12-04T07:33:23;2.75;;;1.45;;
72379;SDS011;60354;47.798;12.472;2023-12-04T07:35:48;2.25;;;1.50;;
72379;SDS011;60354;47.798;12.472;2023-12-04T07:38:14;2.30;;;0.65;;
72379;SDS011;60354;47.798;12.472;2023-12-04T07:40:39;3.25;;;1.50;;
72379;SDS011;60354;47.798;12.472;2023-12-04T07:43:05;2.92;;;1.30;;
72379;SDS011;60354;47.798;12.472;2023-12-04T07:45:30;2.88;;;1.35;;
72379;SDS011;60354;47.798;12.472;2023-12-04T07:47:56;3.72;;;1.40;;
72379;SDS011;60354;47.798;12.472;2023-12-04T07:50:21;2.22;;;1.20;;
72379;SDS011;60354;47.798;12.472;2023-12-04T07:52:47;1.88;;;1.20;;
72379;SDS011;60354;47.798;12.472;2023-12-04T07:55:12;2.55;;;1.20;;
72379;SDS011;60354;47.798;12.472;2023-12-04T07:57:38;2.50;;;1.40;;
72379;SDS011;60354;47.798;12.472;2023-12-04T08:00:03;2.95;;;1.52;;
72379;SDS011;60354;47.798;12.472;2023-12-04T08:02:29;2.65;;;1.50;;
72379;SDS011;60354;47.798;12.472;2023-12-04T08:04:56;2.78;;;1.35;;
72379;SDS011;60354;47.798;12.472;2023-12-04T08:07:21;4.18;;;1.58;;
72379;SDS011;60354;47.798;12.472;2023-12-04T08:09:46;3.78;;;1.50;;
72379;SDS011;60354;47.798;12.472;2023-12-04T08:12:12;10.90;;;6.22;;
72379;SDS011;60354;47.798;12.472;2023-12-04T08:14:37;12.85;;;6.97;;
72379;SDS011;60354;47.798;12.472;2023-12-04T08:17:03;5.68;;;3.60;;
72379;SDS011;60354;47.798;12.472;2023-12-04T08:19:28;8.68;;;5.05;;
72379;SDS011;60354;47.798;12.472;2023-12-04T08:21:54;10.07;;;6.32;;
72379;SDS011;60354;47.798;12.472;2023-12-04T08:24:20;7.60;;;4.43;;
72379;SDS011;60354;47.798;12.472;2023-12-04T08:26:46;3.58;;;1.83;;
72379;SDS011;60354;47.798;12.472;2023-12-04T08:29:12;5.60;;;2.60;;
72379;SDS011;60354;47.798;12.472;2023-12-04T08:31:37;4.88;;;2.50;;
72379;SDS011;60354;47.798;12.472;2023-12-04T08:34:03;3.85;;;1.77;;
72379;SDS011;60354;47.798;12.472;2023-12-04T08:36:28;6.18;;;2.90;;
72379;SDS011;60354;47.798;12.472;2023-12-04T08:38:54;7.22;;;4.28;;
72379;SDS011;60354;47.798;12.472;2023-12-04T08:41:19;5.25;;;3.17;;
72379;SDS011;60354;47.798;12.472;2023-12-04T08:43:45;4.85;;;3.00;;
72379;SDS011;60354;47.798;12.472;2023-12-04T08:46:13;6.00;;;2.80;;
72379;SDS011;60354;47.798;12.472;2023-12-04T08:48:42;4.55;;;2.80;;
72379;SDS011;60354;47.798;12.472;2023-12-04T08:51:14;17.63;;;8.00;;
72379;SDS011;60354;47.798;12.472;2023-12-04T08:53:40;3.58;;;2.00;;
72379;SDS011;60354;47.798;12.472;2023-12-04T08:56:06;3.90;;;1.80;;
72379;SDS011;60354;47.798;12.472;2023-12-04T08:58:32;6.03;;;2.50;;
72379;SDS011;60354;47.798;12.472;2023-12-04T09:00:57;4.65;;;2.50;;
72379;SDS011;60354;47.798;12.472;2023-12-04T09:03:23;3.45;;;2.00;;
72379;SDS011;60354;47.798;12.472;2023-12-04T09:05:49;2.97;;;1.83;;
72379;SDS011;60354;47.798;12.472;2023-12-04T09:08:16;4.78;;;2.13;;
72379;SDS011;60354;47.798;12.472;2023-12-04T09:10:43;4.72;;;2.13;;
72379;SDS011;60354;47.798;12.472;2023-12-04T09:13:09;25.85;;;10.05;;
72379;SDS011;60354;47.798;12.472;2023-12-04T09:15:34;13.00;;;5.53;;
72379;SDS011;60354;47.798;12.472;2023-12-04T09:18:00;15.38;;;7.00;;
72379;SDS011;60354;47.798;12.472;2023-12-04T09:20:25;5.20;;;2.63;;
72379;SDS011;60354;47.798;12.472;2023-12-04T09:22:51;7.43;;;3.50;;
72379;SDS011;60354;47.798;12.472;2023-12-04T09:25:16;5.75;;;2.83;;
72379;SDS011;60354;47.798;12.472;2023-12-04T09:27:42;4.40;;;2.30;;
72379;SDS011;60354;47.798;12.472;2023-12-04T09:30:07;5.97;;;2.83;;
72379;SDS011;60354;47.798;12.472;2023-12-04T09:32:33;4.18;;;2.53;;
72379;SDS011;60354;47.798;12.472;2023-12-04T09:34:59;6.65;;;3.38;;
72379;SDS011;60354;47.798;12.472;2023-12-04T09:37:24;4.70;;;3.08;;
72379;SDS011;60354;47.798;12.472;2023-12-04T09:39:50;4.75;;;3.10;;
72379;SDS011;60354;47.798;12.472;2023-12-04T09:42:16;7.05;;;2.95;;
72379;SDS011;60354;47.798;12.472;2023-12-04T09:44:43;6.32;;;3.53;;
72379;SDS011;60354;47.798;12.472;2023-12-04T09:47:09;6.40;;;2.70;;
72379;SDS011;60354;47.798;12.472;2023-12-04T09:49:35;5.28;;;3.03;;
72379;SDS011;60354;47.798;12.472;2023-12-04T09:52:02;9.52;;;5.88;;
72379;SDS011;60354;47.798;12.472;2023-12-04T09:54:28;12.35;;;6.50;;
72379;SDS011;60354;47.798;12.472;2023-12-04T09:56:54;31.33;;;10.45;;
72379;SDS011;60354;47.798;12.472;2023-12-04T09:59:20;19.52;;;8.88;;
72379;SDS011;60354;47.798;12.472;2023-12-04T10:01:52;20.52;;;9.60;;
72379;SDS011;60354;47.798;12.472;2023-12-04T10:04:18;23.38;;;11.48;;
72379;SDS011;60354;47.798;12.472;2023-12-04T10:06:44;12.63;;;3.65;;
72379;SDS011;60354;47.798;12.472;2023-12-04T10:09:10;5.85;;;2.80;;
72379;SDS011;60354;47.798;12.472;2023-12-04T10:11:41;5.35;;;2.50;;
72379;SDS011;60354;47.798;12.472;2023-12-04T10:14:14;2.92;;;1.90;;
72379;SDS011;60354;47.798;12.472;2023-12-04T10:16:41;5.97;;;3.90;;
72379;SDS011;60354;47.798;12.472;2023-12-04T10:21:51;7.85;;;3.72;;
72379;SDS011;60354;47.798;12.472;2023-12-04T10:24:28;5.05;;;3.30;;
72379;SDS011;60354;47.798;12.472;2023-12-04T10:27:02;5.25;;;3.22;;
72379;SDS011;60354;47.798;12.472;2023-12-04T10:29:44;6.10;;;3.35;;
72379;SDS011;60354;47.798;12.472;2023-12-04T10:32:13;6.22;;;3.63;;
72379;SDS011;60354;47.798;12.472;2023-12-04T10:34:42;11.27;;;5.63;;
72379;SDS011;60354;47.798;12.472;2023-12-04T10:37:08;17.98;;;7.68;;
72379;SDS011;60354;47.798;12.472;2023-12-04T10:39:45;11.50;;;5.80;;
72379;SDS011;60354;47.798;12.472;2023-12-04T10:42:12;7.75;;;4.30;;
72379;SDS011;60354;47.798;12.472;2023-12-04T10:44:37;8.57;;;4.15;;
72379;SDS011;60354;47.798;12.472;2023-12-04T10:47:05;6.78;;;4.28;;
72379;SDS011;60354;47.798;12.472;2023-12-04T10:49:32;8.55;;;4.82;;
72379;SDS011;60354;47.798;12.472;2023-12-04T10:51:59;9.15;;;4.60;;
72379;SDS011;60354;47.798;12.472;2023-12-04T10:54:26;7.47;;;4.68;;
72379;SDS011;60354;47.798;12.472;2023-12-04T10:56:52;8.18;;;4.63;;
72379;SDS011;60354;47.798;12.472;2023-12-04T11:01:52;7.68;;;4.28;;
72379;SDS011;60354;47.798;12.472;2023-12-04T11:04:20;8.25;;;4.57;;
72379;SDS011;60354;47.798;12.472;2023-12-04T11:06:52;7.55;;;4.57;;
72379;SDS011;60354;47.798;12.472;2023-12-04T11:09:20;7.43;;;4.10;;
72379;SDS011;60354;47.798;12.472;2023-12-04T11:11:48;6.40;;;4.00;;
72379;SDS011;60354;47.798;12.472;2023-12-04T11:14:20;7.20;;;4.03;;
72379;SDS011;60354;47.798;12.472;2023-12-04T11:16:48;5.72;;;3.78;;
72379;SDS011;60354;47.798;12.472;2023-12-04T11:19:46;6.15;;;3.80;;
72379;SDS011;60354;47.798;12.472;2023-12-04T11:22:23;6.85;;;3.75;;
72379;SDS011;60354;47.798;12.472;2023-12-04T11:24:50;8.85;;;4.35;;
72379;SDS011;60354;47.798;12.472;2023-12-04T11:27:19;8.27;;;4.15;;
72379;SDS011;60354;47.798;12.472;2023-12-04T11:29:46;8.32;;;4.53;;
72379;SDS011;60354;47.798;12.472;2023-12-04T11:32:16;8.80;;;4.40;;
72379;SDS011;60354;47.798;12.472;2023-12-04T11:34:51;7.20;;;4.30;;
72379;SDS011;60354;47.798;12.472;2023-12-04T11:37:21;7.90;;;4.32;;
72379;SDS011;60354;47.798;12.472;2023-12-04T11:39:46;7.43;;;4.38;;
72379;SDS011;60354;47.798;12.472;2023-12-04T11:42:18;6.78;;;4.28;;
72379;SDS011;60354;47.798;12.472;2023-12-04T11:44:47;7.85;;;4.53;;
72379;SDS011;60354;47.798;12.472;2023-12-04T11:47:13;7.40;;;4.40;;
72379;SDS011;60354;47.798;12.472;2023-12-04T11:49:38;7.32;;;4.15;;
72379;SDS011;60354;47.798;12.472;2023-12-04T11:52:06;8.02;;;4.65;;
72379;SDS011;60354;47.798;12.472;2023-12-04T11:57:22;8.73;;;4.28;;
72379;SDS011;60354;47.798;12.472;2023-12-04T11:59:49;10.82;;;5.68;;
72379;SDS011;60354;47.798;12.472;2023-12-04T12:02:15;7.43;;;4.63;;
72379;SDS011;60354;47.798;12.472;2023-12-04T12:04:40;14.90;;;6.35;;
72379;SDS011;60354;47.798;12.472;2023-12-04T12:07:06;11.95;;;5.60;;
72379;SDS011;60354;47.798;12.472;2023-12-04T12:09:32;15.00;;;5.57;;
72379;SDS011;60354;47.798;12.472;2023-12-04T12:12:01;9.80;;;4.43;;
72379;SDS011;60354;47.798;12.472;2023-12-04T12:14:28;11.32;;;5.78;;
72379;SDS011;60354;47.798;12.472;2023-12-04T12:16:54;13.00;;;6.15;;
72379;SDS011;60354;47.798;12.472;2023-12-04T12:19:20;10.18;;;5.47;;
72379;SDS011;60354;47.798;12.472;2023-12-04T12:21:47;22.25;;;9.35;;
72379;SDS011;60354;47.798;12.472;2023-12-04T12:24:14;21.70;;;9.75;;
72379;SDS011;60354;47.798;12.472;2023-12-04T12:26:40;36.53;;;16.75;;
72379;SDS011;60354;47.798;12.472;2023-12-04T12:29:05;11.73;;;6.43;;
72379;SDS011;60354;47.798;12.472;2023-12-04T12:31:31;47.55;;;22.05;;
72379;SDS011;60354;47.798;12.472;2023-12-04T12:33:57;37.25;;;18.50;;
72379;SDS011;60354;47.798;12.472;2023-12-04T12:36:22;16.13;;;9.48;;
72379;SDS011;60354;47.798;12.472;2023-12-04T12:38:48;22.50;;;11.88;;
72379;SDS011;60354;47.798;12.472;2023-12-04T12:41:16;34.35;;;17.35;;
72379;SDS011;60354;47.798;12.472;2023-12-04T12:43:42;43.72;;;24.70;;
72379;SDS011;60354;47.798;12.472;2023-12-04T12:46:08;67.68;;;39.67;;
72379;SDS011;60354;47.798;12.472;2023-12-04T12:48:34;19.17;;;9.70;;
72379;SDS011;60354;47.798;12.472;2023-12-04T12:51:01;15.77;;;9.65;;
72379;SDS011;60354;47.798;12.472;2023-12-04T12:53:27;46.00;;;20.42;;
72379;SDS011;60354;47.798;12.472;2023-12-04T12:55:53;32.65;;;15.43;;
72379;SDS011;60354;47.798;12.472;2023-12-04T12:58:19;63.95;;;27.73;;
72379;SDS011;60354;47.798;12.472;2023-12-04T13:00:46;51.85;;;23.23;;
72379;SDS011;60354;47.798;12.472;2023-12-04T13:03:15;24.02;;;12.63;;
72379;SDS011;60354;47.798;12.472;2023-12-04T13:05:41;13.23;;;7.95;;
72379;SDS011;60354;47.798;12.472;2023-12-04T13:08:07;17.50;;;10.82;;
72379;SDS011;60354;47.798;12.472;2023-12-04T13:10:32;18.70;;;9.60;;
72379;SDS011;60354;47.798;12.472;2023-12-04T13:12:58;16.00;;;8.60;;
72379;SDS011;60354;47.798;12.472;2023-12-04T13:15:25;23.08;;;12.20;;
72379;SDS011;60354;47.798;12.472;2023-12-04T13:17:51;35.90;;;17.92;;
72379;SDS011;60354;47.798;12.472;2023-12-04T13:20:16;17.85;;;10.45;;
72379;SDS011;60354;47.798;12.472;2023-12-04T13:22:43;29.67;;;15.30;;
72379;SDS011;60354;47.798;12.472;2023-12-04T13:25:08;26.92;;;14.98;;
72379;SDS011;60354;47.798;12.472;2023-12-04T13:27:38;20.88;;;9.82;;
72379;SDS011;60354;47.798;12.472;2023-12-04T13:30:05;9.85;;;5.65;;
72379;SDS011;60354;47.798;12.472;2023-12-04T13:32:31;12.57;;;7.18;;
72379;SDS011;60354;47.798;12.472;2023-12-04T13:34:58;14.30;;;7.60;;
72379;SDS011;60354;47.798;12.472;2023-12-04T13:37:24;14.43;;;8.55;;
72379;SDS011;60354;47.798;12.472;2023-12-04T13:39:52;10.80;;;5.88;;
72379;SDS011;60354;47.798;12.472;2023-12-04T13:42:23;15.35;;;8.77;;
72379;SDS011;60354;47.798;12.472;2023-12-04T13:45:08;11.73;;;6.55;;
72379;SDS011;60354;47.798;12.472;2023-12-04T13:47:37;11.82;;;6.85;;
72379;SDS011;60354;47.798;12.472;2023-12-04T13:50:04;12.55;;;7.13;;
72379;SDS011;60354;47.798;12.472;2023-12-04T13:52:34;12.23;;;6.78;;
72379;SDS011;60354;47.798;12.472;2023-12-04T13:55:00;12.18;;;6.43;;
72379;SDS011;60354;47.798;12.472;2023-12-04T13:57:26;15.73;;;7.20;;
72379;SDS011;60354;47.798;12.472;2023-12-04T14:00:09;13.85;;;7.20;;
72379;SDS011;60354;47.798;12.472;2023-12-04T14:02:35;14.13;;;7.38;;
72379;SDS011;60354;47.798;12.472;2023-12-04T14:05:02;12.98;;;6.95;;
72379;SDS011;60354;47.798;12.472;2023-12-04T14:07:28;12.45;;;7.03;;
72379;SDS011;60354;47.798;12.472;2023-12-04T14:09:54;12.52;;;7.00;;
72379;SDS011;60354;47.798;12.472;2023-12-04T14:12:19;13.95;;;6.45;;
72379;SDS011;60354;47.798;12.472;2023-12-04T14:14:45;14.32;;;6.78;;
72379;SDS011;60354;47.798;12.472;2023-12-04T14:17:10;16.17;;;7.07;;
72379;SDS011;60354;47.798;12.472;2023-12-04T14:19:37;22.98;;;14.13;;
72379;SDS011;60354;47.798;12.472;2023-12-04T14:22:04;19.23;;;10.57;;
72379;SDS011;60354;47.798;12.472;2023-12-04T14:24:30;20.42;;;10.07;;
72379;SDS011;60354;47.798;12.472;2023-12-04T14:26:56;23.80;;;13.23;;
72379;SDS011;60354;47.798;12.472;2023-12-04T14:29:21;30.58;;;15.32;;
72379;SDS011;60354;47.798;12.472;2023-12-04T14:31:47;22.92;;;11.98;;
72379;SDS011;60354;47.798;12.472;2023-12-04T14:34:12;30.90;;;17.20;;